トロムソ の空港の天気 - METARとTAF

トロムソ空港 ( ENTC / TOS ) - ノルウェー トロムス県トロムソ
飛行場実況気象(Metar)
観測時間05/28 21:50 CEST (05/28 19:50 UTC)
風向・風速北北東 8m/s
視程10km以上
天気現象
少しの雲 雲底高度 610m
全天の8割程度の雲 雲底高度 1370m
気温4℃
湿度70%
気圧1012hPa
METARENTC 281950Z 02016KT 9999 FEW020 BKN045 04/M01 Q1012 NOSIG RMK WIND 2600FT 36021KT
過去の天気等 Google飛行場航空写真 Wunderground天気予報

過去48時間のMETAR

飛行場予報(TAF)
発表時間: -
29日2時 CEST ~ 29日20時 CEST に一時的に
視程4,000m
天気現象弱いしゅう雪雨
全天を覆う雲 鉛直視程 430m
29日12時 CEST ~ 29日20時 CEST に一時的に
風向・風速西 5m/s
TAF ENTC 2818/2918 04012KT 9999 FEW015 BKN040
TEMPO 2900/2918 4000 -SHSNRA VV014
TEMPO 2910/2918 27009KT